sensor_id;sensor_type;location;lat;lon;timestamp;P1;durP1;ratioP1;P2;durP2;ratioP2
68765;SDS011;55756;45.582;11.484;2023-04-15T00:01:22;12.20;;;6.93;;
68765;SDS011;55756;45.582;11.484;2023-04-15T00:03:49;12.25;;;6.82;;
68765;SDS011;55756;45.582;11.484;2023-04-15T00:06:19;11.88;;;7.03;;
68765;SDS011;55756;45.582;11.484;2023-04-15T00:08:46;10.93;;;7.13;;
68765;SDS011;55756;45.582;11.484;2023-04-15T00:11:12;12.57;;;6.97;;
68765;SDS011;55756;45.582;11.484;2023-04-15T00:13:38;12.73;;;7.57;;
68765;SDS011;55756;45.582;11.484;2023-04-15T00:16:05;12.52;;;7.30;;
68765;SDS011;55756;45.582;11.484;2023-04-15T00:18:32;14.73;;;7.70;;
68765;SDS011;55756;45.582;11.484;2023-04-15T00:20:58;14.68;;;7.80;;
68765;SDS011;55756;45.582;11.484;2023-04-15T00:23:25;13.77;;;7.72;;
68765;SDS011;55756;45.582;11.484;2023-04-15T00:25:51;11.88;;;7.35;;
68765;SDS011;55756;45.582;11.484;2023-04-15T00:28:16;12.55;;;7.07;;
68765;SDS011;55756;45.582;11.484;2023-04-15T00:30:43;13.40;;;6.82;;
68765;SDS011;55756;45.582;11.484;2023-04-15T00:33:09;11.35;;;6.85;;
68765;SDS011;55756;45.582;11.484;2023-04-15T00:35:35;11.13;;;7.35;;
68765;SDS011;55756;45.582;11.484;2023-04-15T00:38:02;12.27;;;6.70;;
68765;SDS011;55756;45.582;11.484;2023-04-15T00:40:30;12.80;;;7.00;;
68765;SDS011;55756;45.582;11.484;2023-04-15T00:42:55;12.40;;;6.93;;
68765;SDS011;55756;45.582;11.484;2023-04-15T00:45:21;11.80;;;7.15;;
68765;SDS011;55756;45.582;11.484;2023-04-15T00:47:48;11.90;;;6.68;;
68765;SDS011;55756;45.582;11.484;2023-04-15T00:50:15;13.77;;;6.90;;
68765;SDS011;55756;45.582;11.484;2023-04-15T00:52:41;14.30;;;7.22;;
68765;SDS011;55756;45.582;11.484;2023-04-15T00:55:07;10.43;;;6.80;;
68765;SDS011;55756;45.582;11.484;2023-04-15T00:57:34;10.07;;;6.80;;
68765;SDS011;55756;45.582;11.484;2023-04-15T01:00:00;12.27;;;6.70;;
68765;SDS011;55756;45.582;11.484;2023-04-15T01:02:28;11.63;;;7.22;;
68765;SDS011;55756;45.582;11.484;2023-04-15T01:04:56;11.67;;;7.03;;
68765;SDS011;55756;45.582;11.484;2023-04-15T01:07:22;11.05;;;6.45;;
68765;SDS011;55756;45.582;11.484;2023-04-15T01:09:48;12.00;;;6.63;;
68765;SDS011;55756;45.582;11.484;2023-04-15T01:12:14;11.30;;;6.80;;
68765;SDS011;55756;45.582;11.484;2023-04-15T01:14:41;10.95;;;7.13;;
68765;SDS011;55756;45.582;11.484;2023-04-15T01:17:07;11.05;;;6.47;;
68765;SDS011;55756;45.582;11.484;2023-04-15T01:19:33;10.88;;;6.43;;
68765;SDS011;55756;45.582;11.484;2023-04-15T01:22:01;12.25;;;6.28;;
68765;SDS011;55756;45.582;11.484;2023-04-15T01:24:28;12.37;;;6.07;;
68765;SDS011;55756;45.582;11.484;2023-04-15T01:26:55;11.82;;;6.60;;
68765;SDS011;55756;45.582;11.484;2023-04-15T01:29:22;10.75;;;6.05;;
68765;SDS011;55756;45.582;11.484;2023-04-15T01:31:52;11.98;;;6.45;;
68765;SDS011;55756;45.582;11.484;2023-04-15T01:34:20;11.27;;;5.82;;
68765;SDS011;55756;45.582;11.484;2023-04-15T01:36:46;10.80;;;5.97;;
68765;SDS011;55756;45.582;11.484;2023-04-15T01:39:12;11.57;;;5.70;;
68765;SDS011;55756;45.582;11.484;2023-04-15T01:41:39;11.18;;;5.80;;
68765;SDS011;55756;45.582;11.484;2023-04-15T01:44:06;10.68;;;6.03;;
68765;SDS011;55756;45.582;11.484;2023-04-15T01:46:32;11.00;;;5.70;;
68765;SDS011;55756;45.582;11.484;2023-04-15T01:48:58;10.10;;;5.20;;
68765;SDS011;55756;45.582;11.484;2023-04-15T01:51:25;12.23;;;5.45;;
68765;SDS011;55756;45.582;11.484;2023-04-15T01:53:51;10.80;;;5.28;;
68765;SDS011;55756;45.582;11.484;2023-04-15T01:56:17;11.63;;;5.40;;
68765;SDS011;55756;45.582;11.484;2023-04-15T01:58:43;9.77;;;5.28;;
68765;SDS011;55756;45.582;11.484;2023-04-15T02:01:09;10.63;;;5.80;;
68765;SDS011;55756;45.582;11.484;2023-04-15T02:03:36;9.00;;;5.45;;
68765;SDS011;55756;45.582;11.484;2023-04-15T02:06:03;11.07;;;5.38;;
68765;SDS011;55756;45.582;11.484;2023-04-15T02:08:30;11.20;;;5.38;;
68765;SDS011;55756;45.582;11.484;2023-04-15T02:10:56;11.82;;;5.63;;
68765;SDS011;55756;45.582;11.484;2023-04-15T02:13:22;10.00;;;5.20;;
68765;SDS011;55756;45.582;11.484;2023-04-15T02:15:48;10.50;;;5.43;;
68765;SDS011;55756;45.582;11.484;2023-04-15T02:18:17;12.27;;;5.63;;
68765;SDS011;55756;45.582;11.484;2023-04-15T02:20:43;10.65;;;5.65;;
68765;SDS011;55756;45.582;11.484;2023-04-15T02:23:09;9.23;;;5.25;;
68765;SDS011;55756;45.582;11.484;2023-04-15T02:25:36;10.63;;;5.60;;
68765;SDS011;55756;45.582;11.484;2023-04-15T02:28:07;10.93;;;5.50;;
68765;SDS011;55756;45.582;11.484;2023-04-15T02:30:32;10.13;;;5.50;;
68765;SDS011;55756;45.582;11.484;2023-04-15T02:33:02;9.53;;;5.27;;
68765;SDS011;55756;45.582;11.484;2023-04-15T02:35:28;10.43;;;5.40;;
68765;SDS011;55756;45.582;11.484;2023-04-15T02:37:54;9.10;;;5.10;;
68765;SDS011;55756;45.582;11.484;2023-04-15T02:40:20;11.93;;;5.35;;
68765;SDS011;55756;45.582;11.484;2023-04-15T02:42:46;9.15;;;5.28;;
68765;SDS011;55756;45.582;11.484;2023-04-15T02:45:14;9.82;;;5.38;;
68765;SDS011;55756;45.582;11.484;2023-04-15T02:47:42;9.95;;;5.28;;
68765;SDS011;55756;45.582;11.484;2023-04-15T02:50:09;9.32;;;5.10;;
68765;SDS011;55756;45.582;11.484;2023-04-15T02:55:08;9.90;;;5.30;;
68765;SDS011;55756;45.582;11.484;2023-04-15T02:57:35;11.40;;;5.82;;
68765;SDS011;55756;45.582;11.484;2023-04-15T03:00:04;8.82;;;5.07;;
68765;SDS011;55756;45.582;11.484;2023-04-15T03:02:34;10.75;;;5.40;;
68765;SDS011;55756;45.582;11.484;2023-04-15T03:05:01;10.52;;;5.60;;
68765;SDS011;55756;45.582;11.484;2023-04-15T03:07:27;11.40;;;5.65;;
68765;SDS011;55756;45.582;11.484;2023-04-15T03:09:54;9.80;;;5.20;;
68765;SDS011;55756;45.582;11.484;2023-04-15T03:12:20;9.73;;;5.22;;
68765;SDS011;55756;45.582;11.484;2023-04-15T03:14:46;9.65;;;5.10;;
68765;SDS011;55756;45.582;11.484;2023-04-15T03:17:11;10.75;;;5.20;;
68765;SDS011;55756;45.582;11.484;2023-04-15T03:19:37;8.80;;;4.95;;
68765;SDS011;55756;45.582;11.484;2023-04-15T03:22:03;8.98;;;5.00;;
68765;SDS011;55756;45.582;11.484;2023-04-15T03:24:29;9.32;;;5.00;;
68765;SDS011;55756;45.582;11.484;2023-04-15T03:26:56;9.32;;;5.13;;
68765;SDS011;55756;45.582;11.484;2023-04-15T03:29:23;10.20;;;5.32;;
68765;SDS011;55756;45.582;11.484;2023-04-15T03:31:50;9.60;;;4.70;;
68765;SDS011;55756;45.582;11.484;2023-04-15T03:34:16;8.98;;;4.88;;
68765;SDS011;55756;45.582;11.484;2023-04-15T03:36:42;9.93;;;5.25;;
68765;SDS011;55756;45.582;11.484;2023-04-15T03:39:08;11.07;;;5.22;;
68765;SDS011;55756;45.582;11.484;2023-04-15T03:41:33;8.70;;;4.68;;
68765;SDS011;55756;45.582;11.484;2023-04-15T03:43:59;8.82;;;4.88;;
68765;SDS011;55756;45.582;11.484;2023-04-15T03:46:25;9.05;;;4.90;;
68765;SDS011;55756;45.582;11.484;2023-04-15T03:48:51;10.30;;;5.00;;
68765;SDS011;55756;45.582;11.484;2023-04-15T03:51:17;8.73;;;4.55;;
68765;SDS011;55756;45.582;11.484;2023-04-15T03:53:43;9.70;;;4.68;;
68765;SDS011;55756;45.582;11.484;2023-04-15T03:56:08;9.05;;;4.28;;
68765;SDS011;55756;45.582;11.484;2023-04-15T03:58:34;9.40;;;4.82;;
68765;SDS011;55756;45.582;11.484;2023-04-15T04:01:00;9.30;;;5.05;;
68765;SDS011;55756;45.582;11.484;2023-04-15T04:03:26;10.18;;;4.63;;
68765;SDS011;55756;45.582;11.484;2023-04-15T04:05:52;8.30;;;4.45;;
68765;SDS011;55756;45.582;11.484;2023-04-15T04:08:17;7.68;;;4.32;;
68765;SDS011;55756;45.582;11.484;2023-04-15T04:10:44;9.80;;;4.30;;
68765;SDS011;55756;45.582;11.484;2023-04-15T04:13:10;8.43;;;4.28;;
68765;SDS011;55756;45.582;11.484;2023-04-15T04:15:36;7.95;;;4.32;;
68765;SDS011;55756;45.582;11.484;2023-04-15T04:18:01;9.13;;;4.40;;
68765;SDS011;55756;45.582;11.484;2023-04-15T04:20:27;7.60;;;3.97;;
68765;SDS011;55756;45.582;11.484;2023-04-15T04:22:56;9.48;;;4.90;;
68765;SDS011;55756;45.582;11.484;2023-04-15T04:25:22;9.25;;;4.47;;
68765;SDS011;55756;45.582;11.484;2023-04-15T04:27:48;13.30;;;6.63;;
68765;SDS011;55756;45.582;11.484;2023-04-15T04:30:14;13.23;;;7.60;;
68765;SDS011;55756;45.582;11.484;2023-04-15T04:32:40;16.27;;;10.65;;
68765;SDS011;55756;45.582;11.484;2023-04-15T04:35:06;43.78;;;25.90;;
68765;SDS011;55756;45.582;11.484;2023-04-15T04:37:32;17.17;;;10.65;;
68765;SDS011;55756;45.582;11.484;2023-04-15T04:39:58;16.33;;;9.88;;
68765;SDS011;55756;45.582;11.484;2023-04-15T04:42:23;130.75;;;62.05;;
68765;SDS011;55756;45.582;11.484;2023-04-15T04:44:49;70.82;;;34.22;;
68765;SDS011;55756;45.582;11.484;2023-04-15T04:47:15;112.53;;;45.83;;
68765;SDS011;55756;45.582;11.484;2023-04-15T04:49:41;141.70;;;57.17;;
68765;SDS011;55756;45.582;11.484;2023-04-15T04:52:06;155.27;;;61.00;;
68765;SDS011;55756;45.582;11.484;2023-04-15T04:54:34;119.20;;;49.20;;
68765;SDS011;55756;45.582;11.484;2023-04-15T04:56:59;74.63;;;32.10;;
68765;SDS011;55756;45.582;11.484;2023-04-15T04:59:25;194.38;;;78.93;;
68765;SDS011;55756;45.582;11.484;2023-04-15T05:01:51;103.75;;;44.78;;
68765;SDS011;55756;45.582;11.484;2023-04-15T05:04:17;113.68;;;50.67;;
68765;SDS011;55756;45.582;11.484;2023-04-15T05:06:43;162.48;;;72.90;;
68765;SDS011;55756;45.582;11.484;2023-04-15T05:09:08;91.00;;;46.28;;
68765;SDS011;55756;45.582;11.484;2023-04-15T05:11:34;47.58;;;28.17;;
68765;SDS011;55756;45.582;11.484;2023-04-15T05:14:00;27.13;;;14.60;;
68765;SDS011;55756;45.582;11.484;2023-04-15T05:16:26;20.27;;;10.35;;
68765;SDS011;55756;45.582;11.484;2023-04-15T05:18:52;14.77;;;8.43;;
68765;SDS011;55756;45.582;11.484;2023-04-15T05:21:18;13.98;;;7.90;;
68765;SDS011;55756;45.582;11.484;2023-04-15T05:23:44;9.63;;;6.00;;
68765;SDS011;55756;45.582;11.484;2023-04-15T05:26:11;11.40;;;5.15;;
68765;SDS011;55756;45.582;11.484;2023-04-15T05:28:36;9.60;;;4.80;;
68765;SDS011;55756;45.582;11.484;2023-04-15T05:31:02;9.52;;;4.32;;
68765;SDS011;55756;45.582;11.484;2023-04-15T05:33:28;8.82;;;4.60;;
68765;SDS011;55756;45.582;11.484;2023-04-15T05:35:54;8.13;;;3.85;;
68765;SDS011;55756;45.582;11.484;2023-04-15T05:38:20;8.02;;;4.00;;
68765;SDS011;55756;45.582;11.484;2023-04-15T05:40:45;7.63;;;4.20;;
68765;SDS011;55756;45.582;11.484;2023-04-15T05:43:11;9.20;;;3.80;;
68765;SDS011;55756;45.582;11.484;2023-04-15T05:45:37;8.30;;;3.90;;
68765;SDS011;55756;45.582;11.484;2023-04-15T05:48:03;11.82;;;4.35;;
68765;SDS011;55756;45.582;11.484;2023-04-15T05:50:28;11.10;;;3.95;;
68765;SDS011;55756;45.582;11.484;2023-04-15T05:52:54;8.70;;;3.88;;
68765;SDS011;55756;45.582;11.484;2023-04-15T05:55:20;10.20;;;3.90;;
68765;SDS011;55756;45.582;11.484;2023-04-15T05:57:46;7.97;;;3.90;;
68765;SDS011;55756;45.582;11.484;2023-04-15T06:00:12;8.60;;;3.80;;
68765;SDS011;55756;45.582;11.484;2023-04-15T06:02:39;11.77;;;4.82;;
68765;SDS011;55756;45.582;11.484;2023-04-15T06:05:05;9.23;;;5.28;;
68765;SDS011;55756;45.582;11.484;2023-04-15T06:07:36;8.83;;;4.50;;
68765;SDS011;55756;45.582;11.484;2023-04-15T06:10:02;9.90;;;4.80;;
68765;SDS011;55756;45.582;11.484;2023-04-15T06:12:29;8.88;;;4.50;;
68765;SDS011;55756;45.582;11.484;2023-04-15T06:14:54;10.63;;;4.53;;
68765;SDS011;55756;45.582;11.484;2023-04-15T06:17:21;8.40;;;4.45;;
68765;SDS011;55756;45.582;11.484;2023-04-15T06:19:46;9.93;;;4.65;;
68765;SDS011;55756;45.582;11.484;2023-04-15T06:22:12;8.75;;;4.60;;
68765;SDS011;55756;45.582;11.484;2023-04-15T06:24:38;10.38;;;4.40;;
68765;SDS011;55756;45.582;11.484;2023-04-15T06:27:05;9.60;;;4.68;;
68765;SDS011;55756;45.582;11.484;2023-04-15T06:29:31;8.48;;;4.47;;
68765;SDS011;55756;45.582;11.484;2023-04-15T06:31:56;9.40;;;4.55;;
68765;SDS011;55756;45.582;11.484;2023-04-15T06:34:22;10.55;;;4.60;;
68765;SDS011;55756;45.582;11.484;2023-04-15T06:36:48;11.43;;;4.80;;
68765;SDS011;55756;45.582;11.484;2023-04-15T06:39:14;10.50;;;4.60;;
68765;SDS011;55756;45.582;11.484;2023-04-15T06:41:39;10.07;;;4.80;;
68765;SDS011;55756;45.582;11.484;2023-04-15T06:44:05;9.55;;;4.60;;
68765;SDS011;55756;45.582;11.484;2023-04-15T06:46:31;11.32;;;4.25;;
68765;SDS011;55756;45.582;11.484;2023-04-15T06:48:57;13.13;;;4.30;;
68765;SDS011;55756;45.582;11.484;2023-04-15T06:51:22;11.27;;;4.30;;
68765;SDS011;55756;45.582;11.484;2023-04-15T06:53:48;11.82;;;4.07;;
68765;SDS011;55756;45.582;11.484;2023-04-15T06:56:14;9.50;;;4.25;;
68765;SDS011;55756;45.582;11.484;2023-04-15T06:58:40;10.77;;;3.92;;
68765;SDS011;55756;45.582;11.484;2023-04-15T07:01:06;7.25;;;3.90;;
68765;SDS011;55756;45.582;11.484;2023-04-15T07:03:31;7.68;;;4.20;;
68765;SDS011;55756;45.582;11.484;2023-04-15T07:05:57;9.13;;;3.80;;
68765;SDS011;55756;45.582;11.484;2023-04-15T07:08:23;7.93;;;3.75;;
68765;SDS011;55756;45.582;11.484;2023-04-15T07:10:49;10.02;;;3.83;;
68765;SDS011;55756;45.582;11.484;2023-04-15T07:13:15;9.25;;;4.07;;
68765;SDS011;55756;45.582;11.484;2023-04-15T07:15:41;9.35;;;3.90;;
68765;SDS011;55756;45.582;11.484;2023-04-15T07:18:07;10.38;;;4.20;;
68765;SDS011;55756;45.582;11.484;2023-04-15T07:20:33;7.72;;;3.90;;
68765;SDS011;55756;45.582;11.484;2023-04-15T07:22:59;9.20;;;3.55;;
68765;SDS011;55756;45.582;11.484;2023-04-15T07:25:25;8.90;;;3.80;;
68765;SDS011;55756;45.582;11.484;2023-04-15T07:27:51;8.02;;;4.20;;
68765;SDS011;55756;45.582;11.484;2023-04-15T07:30:17;7.75;;;3.75;;
68765;SDS011;55756;45.582;11.484;2023-04-15T07:32:43;9.13;;;3.85;;
68765;SDS011;55756;45.582;11.484;2023-04-15T07:35:09;8.23;;;3.97;;
68765;SDS011;55756;45.582;11.484;2023-04-15T07:37:35;9.30;;;3.70;;
68765;SDS011;55756;45.582;11.484;2023-04-15T07:40:01;7.82;;;4.00;;
68765;SDS011;55756;45.582;11.484;2023-04-15T07:42:31;8.43;;;3.50;;
68765;SDS011;55756;45.582;11.484;2023-04-15T07:44:58;10.40;;;3.33;;
68765;SDS011;55756;45.582;11.484;2023-04-15T07:47:23;8.18;;;3.50;;
68765;SDS011;55756;45.582;11.484;2023-04-15T07:49:49;8.80;;;3.92;;
68765;SDS011;55756;45.582;11.484;2023-04-15T07:52:15;9.75;;;3.50;;
68765;SDS011;55756;45.582;11.484;2023-04-15T07:54:41;7.45;;;3.40;;
68765;SDS011;55756;45.582;11.484;2023-04-15T07:57:07;9.85;;;3.38;;
68765;SDS011;55756;45.582;11.484;2023-04-15T07:59:33;7.55;;;3.40;;
68765;SDS011;55756;45.582;11.484;2023-04-15T08:01:58;7.20;;;3.50;;
68765;SDS011;55756;45.582;11.484;2023-04-15T08:04:24;7.88;;;3.33;;
68765;SDS011;55756;45.582;11.484;2023-04-15T08:06:50;6.63;;;3.40;;
68765;SDS011;55756;45.582;11.484;2023-04-15T08:09:16;6.60;;;3.03;;
68765;SDS011;55756;45.582;11.484;2023-04-15T08:11:42;7.80;;;3.10;;
68765;SDS011;55756;45.582;11.484;2023-04-15T08:14:08;7.70;;;3.20;;
68765;SDS011;55756;45.582;11.484;2023-04-15T08:16:33;9.27;;;3.60;;
68765;SDS011;55756;45.582;11.484;2023-04-15T08:18:59;8.57;;;3.50;;
68765;SDS011;55756;45.582;11.484;2023-04-15T08:21:25;9.27;;;3.78;;
68765;SDS011;55756;45.582;11.484;2023-04-15T08:23:52;8.95;;;3.70;;
68765;SDS011;55756;45.582;11.484;2023-04-15T08:26:19;7.80;;;3.90;;
68765;SDS011;55756;45.582;11.484;2023-04-15T08:28:45;7.70;;;3.78;;
68765;SDS011;55756;45.582;11.484;2023-04-15T08:31:16;9.20;;;3.90;;
68765;SDS011;55756;45.582;11.484;2023-04-15T08:33:42;10.63;;;4.20;;
68765;SDS011;55756;45.582;11.484;2023-04-15T08:36:08;7.78;;;3.88;;
68765;SDS011;55756;45.582;11.484;2023-04-15T08:38:34;7.32;;;3.60;;
68765;SDS011;55756;45.582;11.484;2023-04-15T08:41:06;8.40;;;3.60;;
68765;SDS011;55756;45.582;11.484;2023-04-15T08:43:50;8.95;;;4.50;;
68765;SDS011;55756;45.582;11.484;2023-04-15T08:48:50;11.77;;;4.75;;
68765;SDS011;55756;45.582;11.484;2023-04-15T08:51:20;7.63;;;4.20;;
68765;SDS011;55756;45.582;11.484;2023-04-15T08:53:46;9.98;;;4.03;;
68765;SDS011;55756;45.582;11.484;2023-04-15T08:56:13;8.88;;;4.80;;
68765;SDS011;55756;45.582;11.484;2023-04-15T08:58:43;9.77;;;4.60;;
68765;SDS011;55756;45.582;11.484;2023-04-15T09:01:10;10.10;;;4.43;;
68765;SDS011;55756;45.582;11.484;2023-04-15T09:03:37;10.02;;;4.75;;
68765;SDS011;55756;45.582;11.484;2023-04-15T09:06:04;10.68;;;4.53;;
68765;SDS011;55756;45.582;11.484;2023-04-15T09:08:31;8.85;;;4.50;;
68765;SDS011;55756;45.582;11.484;2023-04-15T09:10:58;8.07;;;4.30;;
68765;SDS011;55756;45.582;11.484;2023-04-15T09:13:25;9.45;;;4.63;;
68765;SDS011;55756;45.582;11.484;2023-04-15T09:15:51;8.65;;;4.15;;
68765;SDS011;55756;45.582;11.484;2023-04-15T09:18:30;6.35;;;3.70;;
68765;SDS011;55756;45.582;11.484;2023-04-15T09:21:08;8.30;;;3.63;;
68765;SDS011;55756;45.582;11.484;2023-04-15T09:23:36;8.68;;;3.53;;
68765;SDS011;55756;45.582;11.484;2023-04-15T09:26:03;8.52;;;3.70;;
68765;SDS011;55756;45.582;11.484;2023-04-15T09:28:29;10.35;;;3.42;;
68765;SDS011;55756;45.582;11.484;2023-04-15T09:30:56;12.60;;;3.50;;
68765;SDS011;55756;45.582;11.484;2023-04-15T09:33:23;7.68;;;3.42;;
68765;SDS011;55756;45.582;11.484;2023-04-15T09:36:02;7.17;;;3.43;;
68765;SDS011;55756;45.582;11.484;2023-04-15T09:38:30;6.53;;;3.30;;
68765;SDS011;55756;45.582;11.484;2023-04-15T09:40:57;10.30;;;3.65;;
68765;SDS011;55756;45.582;11.484;2023-04-15T09:43:44;9.35;;;3.65;;
68765;SDS011;55756;45.582;11.484;2023-04-15T09:46:09;8.13;;;3.80;;
68765;SDS011;55756;45.582;11.484;2023-04-15T09:48:35;11.88;;;4.22;;
68765;SDS011;55756;45.582;11.484;2023-04-15T09:51:01;7.20;;;3.50;;
68765;SDS011;55756;45.582;11.484;2023-04-15T09:53:29;8.15;;;3.80;;
68765;SDS011;55756;45.582;11.484;2023-04-15T09:55:59;8.60;;;3.40;;
68765;SDS011;55756;45.582;11.484;2023-04-15T09:58:30;7.63;;;3.60;;
68765;SDS011;55756;45.582;11.484;2023-04-15T10:00:58;9.57;;;3.53;;
68765;SDS011;55756;45.582;11.484;2023-04-15T10:03:29;9.18;;;3.80;;
68765;SDS011;55756;45.582;11.484;2023-04-15T10:06:01;8.88;;;3.97;;
68765;SDS011;55756;45.582;11.484;2023-04-15T10:08:31;8.63;;;3.78;;
68765;SDS011;55756;45.582;11.484;2023-04-15T10:13:26;9.65;;;3.60;;
68765;SDS011;55756;45.582;11.484;2023-04-15T10:16:03;7.22;;;3.38;;
68765;SDS011;55756;45.582;11.484;2023-04-15T10:18:31;10.20;;;3.83;;
68765;SDS011;55756;45.582;11.484;2023-04-15T10:23:26;7.85;;;3.28;;
68765;SDS011;55756;45.582;11.484;2023-04-15T10:25:52;7.72;;;3.22;;
68765;SDS011;55756;45.582;11.484;2023-04-15T10:28:18;8.35;;;3.58;;
68765;SDS011;55756;45.582;11.484;2023-04-15T10:30:47;9.88;;;3.33;;
68765;SDS011;55756;45.582;11.484;2023-04-15T10:33:13;10.88;;;3.15;;
68765;SDS011;55756;45.582;11.484;2023-04-15T10:35:44;8.15;;;3.58;;
68765;SDS011;55756;45.582;11.484;2023-04-15T10:38:30;9.55;;;3.10;;
68765;SDS011;55756;45.582;11.484;2023-04-15T10:43:38;10.02;;;2.65;;
68765;SDS011;55756;45.582;11.484;2023-04-15T10:46:09;7.20;;;2.55;;
68765;SDS011;55756;45.582;11.484;2023-04-15T10:48:35;8.50;;;2.53;;
68765;SDS011;55756;45.582;11.484;2023-04-15T10:51:01;8.93;;;2.20;;
68765;SDS011;55756;45.582;11.484;2023-04-15T10:53:29;8.80;;;3.00;;
68765;SDS011;55756;45.582;11.484;2023-04-15T10:55:56;8.43;;;2.90;;
68765;SDS011;55756;45.582;11.484;2023-04-15T10:58:23;9.02;;;3.00;;
68765;SDS011;55756;45.582;11.484;2023-04-15T11:00:50;8.15;;;2.92;;
68765;SDS011;55756;45.582;11.484;2023-04-15T11:03:20;8.20;;;3.00;;
68765;SDS011;55756;45.582;11.484;2023-04-15T11:06:03;9.23;;;3.10;;
68765;SDS011;55756;45.582;11.484;2023-04-15T11:11:23;7.85;;;3.10;;
68765;SDS011;55756;45.582;11.484;2023-04-15T11:14:28;8.25;;;3.20;;
68765;SDS011;55756;45.582;11.484;2023-04-15T11:16:54;8.45;;;3.17;;
68765;SDS011;55756;45.582;11.484;2023-04-15T11:19:20;8.85;;;2.90;;
68765;SDS011;55756;45.582;11.484;2023-04-15T11:21:46;7.18;;;3.08;;
68765;SDS011;55756;45.582;11.484;2023-04-15T11:24:22;7.85;;;3.00;;
68765;SDS011;55756;45.582;11.484;2023-04-15T11:26:56;9.77;;;2.97;;
68765;SDS011;55756;45.582;11.484;2023-04-15T11:29:27;8.10;;;2.75;;
68765;SDS011;55756;45.582;11.484;2023-04-15T11:32:04;8.02;;;2.90;;
68765;SDS011;55756;45.582;11.484;2023-04-15T11:34:33;9.65;;;2.78;;
68765;SDS011;55756;45.582;11.484;2023-04-15T11:37:02;9.45;;;2.90;;
68765;SDS011;55756;45.582;11.484;2023-04-15T11:39:29;10.82;;;3.40;;
68765;SDS011;55756;45.582;11.484;2023-04-15T11:41:55;17.65;;;7.53;;
68765;SDS011;55756;45.582;11.484;2023-04-15T11:44:21;13.25;;;5.20;;
68765;SDS011;55756;45.582;11.484;2023-04-15T11:46:47;10.50;;;3.95;;
68765;SDS011;55756;45.582;11.484;2023-04-15T11:49:24;8.40;;;3.30;;
68765;SDS011;55756;45.582;11.484;2023-04-15T11:51:58;8.60;;;2.88;;
68765;SDS011;55756;45.582;11.484;2023-04-15T11:54:25;8.38;;;2.72;;
68765;SDS011;55756;45.582;11.484;2023-04-15T11:56:51;6.82;;;2.10;;
68765;SDS011;55756;45.582;11.484;2023-04-15T11:59:18;6.82;;;2.30;;
68765;SDS011;55756;45.582;11.484;2023-04-15T12:01:44;6.45;;;2.10;;
68765;SDS011;55756;45.582;11.484;2023-04-15T12:04:15;7.95;;;2.40;;
68765;SDS011;55756;45.582;11.484;2023-04-15T12:06:44;8.65;;;2.35;;
68765;SDS011;55756;45.582;11.484;2023-04-15T12:11:38;6.05;;;1.95;;
68765;SDS011;55756;45.582;11.484;2023-04-15T12:14:08;9.30;;;1.98;;
68765;SDS011;55756;45.582;11.484;2023-04-15T12:16:50;6.57;;;2.08;;
68765;SDS011;55756;45.582;11.484;2023-04-15T12:19:42;7.15;;;2.03;;
68765;SDS011;55756;45.582;11.484;2023-04-15T12:22:10;6.28;;;1.90;;
68765;SDS011;55756;45.582;11.484;2023-04-15T12:24:38;5.95;;;1.95;;
68765;SDS011;55756;45.582;11.484;2023-04-15T12:27:11;9.15;;;2.00;;
68765;SDS011;55756;45.582;11.484;2023-04-15T12:29:39;7.35;;;2.08;;
68765;SDS011;55756;45.582;11.484;2023-04-15T12:32:16;7.13;;;1.85;;
68765;SDS011;55756;45.582;11.484;2023-04-15T12:34:51;6.13;;;1.80;;
68765;SDS011;55756;45.582;11.484;2023-04-15T12:37:18;4.88;;;1.50;;
68765;SDS011;55756;45.582;11.484;2023-04-15T12:39:46;4.35;;;1.50;;
68765;SDS011;55756;45.582;11.484;2023-04-15T12:42:18;6.20;;;1.70;;
68765;SDS011;55756;45.582;11.484;2023-04-15T12:44:44;7.43;;;1.80;;
68765;SDS011;55756;45.582;11.484;2023-04-15T12:47:11;5.43;;;1.50;;
68765;SDS011;55756;45.582;11.484;2023-04-15T12:49:37;5.60;;;1.77;;
68765;SDS011;55756;45.582;11.484;2023-04-15T12:52:03;7.25;;;1.98;;
68765;SDS011;55756;45.582;11.484;2023-04-15T12:54:29;5.97;;;1.85;;
68765;SDS011;55756;45.582;11.484;2023-04-15T12:56:56;6.53;;;1.80;;
68765;SDS011;55756;45.582;11.484;2023-04-15T12:59:22;6.45;;;1.75;;
68765;SDS011;55756;45.582;11.484;2023-04-15T13:01:49;5.68;;;1.83;;
68765;SDS011;55756;45.582;11.484;2023-04-15T13:04:16;5.82;;;1.90;;
68765;SDS011;55756;45.582;11.484;2023-04-15T13:06:42;6.00;;;1.85;;
68765;SDS011;55756;45.582;11.484;2023-04-15T13:09:08;8.45;;;1.95;;
68765;SDS011;55756;45.582;11.484;2023-04-15T13:11:33;5.90;;;1.75;;
68765;SDS011;55756;45.582;11.484;2023-04-15T13:14:01;7.00;;;1.90;;
68765;SDS011;55756;45.582;11.484;2023-04-15T13:16:31;6.85;;;1.90;;
68765;SDS011;55756;45.582;11.484;2023-04-15T13:18:58;4.47;;;1.60;;
68765;SDS011;55756;45.582;11.484;2023-04-15T13:21:24;5.57;;;1.73;;
68765;SDS011;55756;45.582;11.484;2023-04-15T13:23:51;7.68;;;2.00;;
68765;SDS011;55756;45.582;11.484;2023-04-15T13:26:17;7.13;;;1.70;;
68765;SDS011;55756;45.582;11.484;2023-04-15T13:28:43;5.55;;;1.60;;
68765;SDS011;55756;45.582;11.484;2023-04-15T13:31:09;9.10;;;1.70;;
68765;SDS011;55756;45.582;11.484;2023-04-15T13:33:34;4.88;;;1.40;;
68765;SDS011;55756;45.582;11.484;2023-04-15T13:36:00;6.25;;;1.35;;
68765;SDS011;55756;45.582;11.484;2023-04-15T13:38:26;6.10;;;1.40;;
68765;SDS011;55756;45.582;11.484;2023-04-15T13:40:52;5.05;;;1.38;;
68765;SDS011;55756;45.582;11.484;2023-04-15T13:43:18;4.63;;;1.40;;
68765;SDS011;55756;45.582;11.484;2023-04-15T13:45:45;6.15;;;1.52;;
68765;SDS011;55756;45.582;11.484;2023-04-15T13:48:11;4.53;;;1.50;;
68765;SDS011;55756;45.582;11.484;2023-04-15T13:50:36;6.38;;;1.52;;
68765;SDS011;55756;45.582;11.484;2023-04-15T13:53:02;6.35;;;1.45;;
68765;SDS011;55756;45.582;11.484;2023-04-15T13:55:28;5.45;;;1.45;;
68765;SDS011;55756;45.582;11.484;2023-04-15T13:57:55;5.80;;;1.60;;
68765;SDS011;55756;45.582;11.484;2023-04-15T14:00:20;6.35;;;1.70;;
68765;SDS011;55756;45.582;11.484;2023-04-15T14:02:46;6.60;;;1.70;;
68765;SDS011;55756;45.582;11.484;2023-04-15T14:05:12;8.80;;;1.60;;
68765;SDS011;55756;45.582;11.484;2023-04-15T14:07:38;6.28;;;1.70;;
68765;SDS011;55756;45.582;11.484;2023-04-15T14:10:04;7.70;;;1.90;;
68765;SDS011;55756;45.582;11.484;2023-04-15T14:12:30;7.30;;;1.90;;
68765;SDS011;55756;45.582;11.484;2023-04-15T14:14:56;6.45;;;1.80;;
68765;SDS011;55756;45.582;11.484;2023-04-15T14:17:21;9.02;;;1.85;;
68765;SDS011;55756;45.582;11.484;2023-04-15T14:19:47;5.10;;;1.65;;
68765;SDS011;55756;45.582;11.484;2023-04-15T14:22:13;6.40;;;1.75;;
68765;SDS011;55756;45.582;11.484;2023-04-15T14:24:39;5.57;;;1.70;;
68765;SDS011;55756;45.582;11.484;2023-04-15T14:27:05;7.10;;;2.00;;
68765;SDS011;55756;45.582;11.484;2023-04-15T14:29:32;5.47;;;1.60;;
68765;SDS011;55756;45.582;11.484;2023-04-15T14:31:58;6.78;;;1.70;;
68765;SDS011;55756;45.582;11.484;2023-04-15T14:34:24;5.45;;;1.60;;
68765;SDS011;55756;45.582;11.484;2023-04-15T14:36:50;6.40;;;1.80;;
68765;SDS011;55756;45.582;11.484;2023-04-15T14:39:17;5.97;;;1.90;;
68765;SDS011;55756;45.582;11.484;2023-04-15T14:41:43;5.65;;;1.60;;
68765;SDS011;55756;45.582;11.484;2023-04-15T14:44:10;5.35;;;1.77;;
68765;SDS011;55756;45.582;11.484;2023-04-15T14:46:36;5.30;;;1.63;;